sensor_id;sensor_type;location;lat;lon;timestamp;P1;P2;P0
79689;PMS5003;69156;55.932;-3.238;2023-07-13T00:00:59;2;2;
79689;PMS5003;69156;55.932;-3.238;2023-07-13T00:03:25;3;3;
79689;PMS5003;69156;55.932;-3.238;2023-07-13T00:05:56;2;2;
79689;PMS5003;69156;55.932;-3.238;2023-07-13T00:08:15;6;6;
79689;PMS5003;69156;55.932;-3.238;2023-07-13T00:10:41;3;3;
79689;PMS5003;69156;55.932;-3.238;2023-07-13T00:13:06;3;3;
79689;PMS5003;69156;55.932;-3.238;2023-07-13T00:15:31;5;5;
79689;PMS5003;69156;55.932;-3.238;2023-07-13T00:17:57;4;4;
79689;PMS5003;69156;55.932;-3.238;2023-07-13T00:20:22;5;5;
79689;PMS5003;69156;55.932;-3.238;2023-07-13T00:22:48;4;4;
79689;PMS5003;69156;55.932;-3.238;2023-07-13T00:25:13;4;4;
79689;PMS5003;69156;55.932;-3.238;2023-07-13T00:27:38;5;5;
79689;PMS5003;69156;55.932;-3.238;2023-07-13T00:30:04;3;3;
79689;PMS5003;69156;55.932;-3.238;2023-07-13T00:32:29;4;4;
79689;PMS5003;69156;55.932;-3.238;2023-07-13T00:34:55;6;5;
79689;PMS5003;69156;55.932;-3.238;2023-07-13T00:37:20;5;4;
79689;PMS5003;69156;55.932;-3.238;2023-07-13T00:39:46;3;3;
79689;PMS5003;69156;55.932;-3.238;2023-07-13T00:42:12;3;3;
79689;PMS5003;69156;55.932;-3.238;2023-07-13T00:44:37;2;2;
79689;PMS5003;69156;55.932;-3.238;2023-07-13T00:47:02;4;4;
79689;PMS5003;69156;55.932;-3.238;2023-07-13T00:49:29;3;3;
79689;PMS5003;69156;55.932;-3.238;2023-07-13T00:51:55;3;3;
79689;PMS5003;69156;55.932;-3.238;2023-07-13T00:54:20;3;3;
79689;PMS5003;69156;55.932;-3.238;2023-07-13T00:56:47;4;3;
79689;PMS5003;69156;55.932;-3.238;2023-07-13T00:59:10;3;3;
79689;PMS5003;69156;55.932;-3.238;2023-07-13T01:01:36;2;2;
79689;PMS5003;69156;55.932;-3.238;2023-07-13T01:04:01;1;1;
79689;PMS5003;69156;55.932;-3.238;2023-07-13T01:06:27;2;2;
79689;PMS5003;69156;55.932;-3.238;2023-07-13T01:08:51;2;2;
79689;PMS5003;69156;55.932;-3.238;2023-07-13T01:11:18;4;3;
79689;PMS5003;69156;55.932;-3.238;2023-07-13T01:13:42;3;3;
79689;PMS5003;69156;55.932;-3.238;2023-07-13T01:16:11;3;2;
79689;PMS5003;69156;55.932;-3.238;2023-07-13T01:18:32;3;3;
79689;PMS5003;69156;55.932;-3.238;2023-07-13T01:20:58;4;4;
79689;PMS5003;69156;55.932;-3.238;2023-07-13T01:23:23;3;3;
79689;PMS5003;69156;55.932;-3.238;2023-07-13T01:25:48;3;3;
79689;PMS5003;69156;55.932;-3.238;2023-07-13T01:28:14;4;4;
79689;PMS5003;69156;55.932;-3.238;2023-07-13T01:30:40;3;3;
79689;PMS5003;69156;55.932;-3.238;2023-07-13T01:33:07;6;6;
79689;PMS5003;69156;55.932;-3.238;2023-07-13T01:35:33;4;4;
79689;PMS5003;69156;55.932;-3.238;2023-07-13T01:37:58;5;5;
79689;PMS5003;69156;55.932;-3.238;2023-07-13T01:40:24;5;5;
79689;PMS5003;69156;55.932;-3.238;2023-07-13T01:42:49;6;6;
79689;PMS5003;69156;55.932;-3.238;2023-07-13T01:45:15;5;5;
79689;PMS5003;69156;55.932;-3.238;2023-07-13T01:47:40;5;5;
79689;PMS5003;69156;55.932;-3.238;2023-07-13T01:50:07;5;5;
79689;PMS5003;69156;55.932;-3.238;2023-07-13T01:52:31;6;6;
79689;PMS5003;69156;55.932;-3.238;2023-07-13T01:54:57;7;7;
79689;PMS5003;69156;55.932;-3.238;2023-07-13T01:57:22;6;6;
79689;PMS5003;69156;55.932;-3.238;2023-07-13T01:59:47;8;8;
79689;PMS5003;69156;55.932;-3.238;2023-07-13T02:02:12;7;7;
79689;PMS5003;69156;55.932;-3.238;2023-07-13T02:04:38;7;6;
79689;PMS5003;69156;55.932;-3.238;2023-07-13T02:07:04;7;7;
79689;PMS5003;69156;55.932;-3.238;2023-07-13T02:09:30;8;8;
79689;PMS5003;69156;55.932;-3.238;2023-07-13T02:11:55;4;4;
79689;PMS5003;69156;55.932;-3.238;2023-07-13T02:14:21;7;6;
79689;PMS5003;69156;55.932;-3.238;2023-07-13T02:16:47;6;6;
79689;PMS5003;69156;55.932;-3.238;2023-07-13T02:19:12;6;6;
79689;PMS5003;69156;55.932;-3.238;2023-07-13T02:21:38;4;4;
79689;PMS5003;69156;55.932;-3.238;2023-07-13T02:24:04;5;5;
79689;PMS5003;69156;55.932;-3.238;2023-07-13T02:26:29;8;8;
79689;PMS5003;69156;55.932;-3.238;2023-07-13T02:28:54;8;6;
79689;PMS5003;69156;55.932;-3.238;2023-07-13T02:31:19;7;7;
79689;PMS5003;69156;55.932;-3.238;2023-07-13T02:33:44;5;5;
79689;PMS5003;69156;55.932;-3.238;2023-07-13T02:36:11;6;6;
79689;PMS5003;69156;55.932;-3.238;2023-07-13T02:38:37;6;5;
79689;PMS5003;69156;55.932;-3.238;2023-07-13T02:41:02;5;5;
79689;PMS5003;69156;55.932;-3.238;2023-07-13T02:43:28;6;6;
79689;PMS5003;69156;55.932;-3.238;2023-07-13T02:45:53;6;6;
79689;PMS5003;69156;55.932;-3.238;2023-07-13T02:48:19;6;5;
79689;PMS5003;69156;55.932;-3.238;2023-07-13T02:50:44;7;7;
79689;PMS5003;69156;55.932;-3.238;2023-07-13T02:53:09;5;5;
79689;PMS5003;69156;55.932;-3.238;2023-07-13T02:55:35;5;5;
79689;PMS5003;69156;55.932;-3.238;2023-07-13T02:58:00;5;5;
79689;PMS5003;69156;55.932;-3.238;2023-07-13T03:00:26;6;6;
79689;PMS5003;69156;55.932;-3.238;2023-07-13T03:02:51;6;6;
79689;PMS5003;69156;55.932;-3.238;2023-07-13T03:05:16;7;6;
79689;PMS5003;69156;55.932;-3.238;2023-07-13T03:07:41;5;5;
79689;PMS5003;69156;55.932;-3.238;2023-07-13T03:10:07;6;6;
79689;PMS5003;69156;55.932;-3.238;2023-07-13T03:12:33;3;3;
79689;PMS5003;69156;55.932;-3.238;2023-07-13T03:14:58;6;5;
79689;PMS5003;69156;55.932;-3.238;2023-07-13T03:17:23;5;5;
79689;PMS5003;69156;55.932;-3.238;2023-07-13T03:19:49;6;5;
79689;PMS5003;69156;55.932;-3.238;2023-07-13T03:22:14;5;5;
79689;PMS5003;69156;55.932;-3.238;2023-07-13T03:24:39;3;3;
79689;PMS5003;69156;55.932;-3.238;2023-07-13T03:27:05;5;5;
79689;PMS5003;69156;55.932;-3.238;2023-07-13T03:29:30;7;5;
79689;PMS5003;69156;55.932;-3.238;2023-07-13T03:31:56;4;4;
79689;PMS5003;69156;55.932;-3.238;2023-07-13T03:34:21;4;4;
79689;PMS5003;69156;55.932;-3.238;2023-07-13T03:36:48;5;5;
79689;PMS5003;69156;55.932;-3.238;2023-07-13T03:39:13;5;5;
79689;PMS5003;69156;55.932;-3.238;2023-07-13T03:41:38;5;5;
79689;PMS5003;69156;55.932;-3.238;2023-07-13T03:44:04;6;6;
79689;PMS5003;69156;55.932;-3.238;2023-07-13T03:46:29;4;4;
79689;PMS5003;69156;55.932;-3.238;2023-07-13T03:48:54;5;5;
79689;PMS5003;69156;55.932;-3.238;2023-07-13T03:51:20;5;4;
79689;PMS5003;69156;55.932;-3.238;2023-07-13T03:53:46;4;4;
79689;PMS5003;69156;55.932;-3.238;2023-07-13T03:56:12;7;7;
79689;PMS5003;69156;55.932;-3.238;2023-07-13T03:58:37;5;5;
79689;PMS5003;69156;55.932;-3.238;2023-07-13T04:01:03;4;4;
79689;PMS5003;69156;55.932;-3.238;2023-07-13T04:03:28;6;6;
79689;PMS5003;69156;55.932;-3.238;2023-07-13T04:05:54;4;4;
79689;PMS5003;69156;55.932;-3.238;2023-07-13T04:08:19;5;5;
79689;PMS5003;69156;55.932;-3.238;2023-07-13T04:10:44;5;4;
79689;PMS5003;69156;55.932;-3.238;2023-07-13T04:13:10;6;6;
79689;PMS5003;69156;55.932;-3.238;2023-07-13T04:15:35;4;4;
79689;PMS5003;69156;55.932;-3.238;2023-07-13T04:18:00;5;5;
79689;PMS5003;69156;55.932;-3.238;2023-07-13T04:20:26;4;4;
79689;PMS5003;69156;55.932;-3.238;2023-07-13T04:22:51;6;6;
79689;PMS5003;69156;55.932;-3.238;2023-07-13T04:25:17;6;6;
79689;PMS5003;69156;55.932;-3.238;2023-07-13T04:27:41;5;5;
79689;PMS5003;69156;55.932;-3.238;2023-07-13T04:30:07;5;5;
79689;PMS5003;69156;55.932;-3.238;2023-07-13T04:32:33;6;6;
79689;PMS5003;69156;55.932;-3.238;2023-07-13T04:34:59;4;4;
79689;PMS5003;69156;55.932;-3.238;2023-07-13T04:37:24;5;5;
79689;PMS5003;69156;55.932;-3.238;2023-07-13T04:39:50;6;6;
79689;PMS5003;69156;55.932;-3.238;2023-07-13T04:42:16;5;5;
79689;PMS5003;69156;55.932;-3.238;2023-07-13T04:44:41;5;5;
79689;PMS5003;69156;55.932;-3.238;2023-07-13T04:47:07;5;5;
79689;PMS5003;69156;55.932;-3.238;2023-07-13T04:49:33;3;3;
79689;PMS5003;69156;55.932;-3.238;2023-07-13T04:51:58;6;6;
79689;PMS5003;69156;55.932;-3.238;2023-07-13T04:54:23;4;4;
79689;PMS5003;69156;55.932;-3.238;2023-07-13T04:56:49;4;4;
79689;PMS5003;69156;55.932;-3.238;2023-07-13T04:59:15;5;5;
79689;PMS5003;69156;55.932;-3.238;2023-07-13T05:01:40;5;5;
79689;PMS5003;69156;55.932;-3.238;2023-07-13T05:04:05;4;4;
79689;PMS5003;69156;55.932;-3.238;2023-07-13T05:06:30;4;4;
79689;PMS5003;69156;55.932;-3.238;2023-07-13T05:08:56;4;4;
79689;PMS5003;69156;55.932;-3.238;2023-07-13T05:11:21;4;4;
79689;PMS5003;69156;55.932;-3.238;2023-07-13T05:13:46;5;5;
79689;PMS5003;69156;55.932;-3.238;2023-07-13T05:16:11;4;4;
79689;PMS5003;69156;55.932;-3.238;2023-07-13T05:18:37;4;4;
79689;PMS5003;69156;55.932;-3.238;2023-07-13T05:21:03;4;4;
79689;PMS5003;69156;55.932;-3.238;2023-07-13T05:23:28;3;3;
79689;PMS5003;69156;55.932;-3.238;2023-07-13T05:25:53;3;3;
79689;PMS5003;69156;55.932;-3.238;2023-07-13T05:28:19;6;6;
79689;PMS5003;69156;55.932;-3.238;2023-07-13T05:30:45;4;4;
79689;PMS5003;69156;55.932;-3.238;2023-07-13T05:33:10;4;3;
79689;PMS5003;69156;55.932;-3.238;2023-07-13T05:35:35;5;4;
79689;PMS5003;69156;55.932;-3.238;2023-07-13T05:38:01;3;3;
79689;PMS5003;69156;55.932;-3.238;2023-07-13T05:40:26;3;3;
79689;PMS5003;69156;55.932;-3.238;2023-07-13T05:42:51;4;3;
79689;PMS5003;69156;55.932;-3.238;2023-07-13T05:45:17;4;4;
79689;PMS5003;69156;55.932;-3.238;2023-07-13T05:47:42;4;4;
79689;PMS5003;69156;55.932;-3.238;2023-07-13T05:50:08;4;4;
79689;PMS5003;69156;55.932;-3.238;2023-07-13T05:52:33;3;3;
79689;PMS5003;69156;55.932;-3.238;2023-07-13T05:54:59;3;3;
79689;PMS5003;69156;55.932;-3.238;2023-07-13T05:57:24;2;2;
79689;PMS5003;69156;55.932;-3.238;2023-07-13T05:59:50;5;4;
79689;PMS5003;69156;55.932;-3.238;2023-07-13T06:02:16;3;3;
79689;PMS5003;69156;55.932;-3.238;2023-07-13T06:04:40;5;4;
79689;PMS5003;69156;55.932;-3.238;2023-07-13T06:07:06;4;4;
79689;PMS5003;69156;55.932;-3.238;2023-07-13T06:09:31;4;4;
79689;PMS5003;69156;55.932;-3.238;2023-07-13T06:11:57;3;3;
79689;PMS5003;69156;55.932;-3.238;2023-07-13T06:14:22;2;2;
79689;PMS5003;69156;55.932;-3.238;2023-07-13T06:16:48;2;2;
79689;PMS5003;69156;55.932;-3.238;2023-07-13T06:19:14;2;2;
79689;PMS5003;69156;55.932;-3.238;2023-07-13T06:21:40;2;2;
79689;PMS5003;69156;55.932;-3.238;2023-07-13T06:24:05;3;3;
79689;PMS5003;69156;55.932;-3.238;2023-07-13T06:26:31;2;2;
79689;PMS5003;69156;55.932;-3.238;2023-07-13T06:28:57;2;2;
79689;PMS5003;69156;55.932;-3.238;2023-07-13T06:31:22;3;3;
79689;PMS5003;69156;55.932;-3.238;2023-07-13T06:33:48;4;3;
79689;PMS5003;69156;55.932;-3.238;2023-07-13T06:36:14;2;2;
79689;PMS5003;69156;55.932;-3.238;2023-07-13T06:38:39;2;2;
79689;PMS5003;69156;55.932;-3.238;2023-07-13T06:41:05;3;3;
79689;PMS5003;69156;55.932;-3.238;2023-07-13T06:43:29;2;2;
79689;PMS5003;69156;55.932;-3.238;2023-07-13T06:45:55;2;2;
79689;PMS5003;69156;55.932;-3.238;2023-07-13T06:48:20;2;2;
79689;PMS5003;69156;55.932;-3.238;2023-07-13T06:50:46;1;1;
79689;PMS5003;69156;55.932;-3.238;2023-07-13T06:53:12;3;3;
79689;PMS5003;69156;55.932;-3.238;2023-07-13T06:55:36;1;1;
79689;PMS5003;69156;55.932;-3.238;2023-07-13T06:58:02;1;1;
79689;PMS5003;69156;55.932;-3.238;2023-07-13T07:00:27;4;3;
79689;PMS5003;69156;55.932;-3.238;2023-07-13T07:02:52;2;2;
79689;PMS5003;69156;55.932;-3.238;2023-07-13T07:05:18;1;1;
79689;PMS5003;69156;55.932;-3.238;2023-07-13T07:07:43;2;2;
79689;PMS5003;69156;55.932;-3.238;2023-07-13T07:10:08;1;1;
79689;PMS5003;69156;55.932;-3.238;2023-07-13T07:12:34;2;2;
79689;PMS5003;69156;55.932;-3.238;2023-07-13T07:14:59;2;2;
79689;PMS5003;69156;55.932;-3.238;2023-07-13T07:17:24;0;0;
79689;PMS5003;69156;55.932;-3.238;2023-07-13T07:19:50;1;1;
79689;PMS5003;69156;55.932;-3.238;2023-07-13T07:22:15;2;2;
79689;PMS5003;69156;55.932;-3.238;2023-07-13T07:24:41;2;2;
79689;PMS5003;69156;55.932;-3.238;2023-07-13T07:27:07;2;2;
79689;PMS5003;69156;55.932;-3.238;2023-07-13T07:29:33;1;1;
79689;PMS5003;69156;55.932;-3.238;2023-07-13T07:31:58;2;2;
79689;PMS5003;69156;55.932;-3.238;2023-07-13T07:34:24;1;1;
79689;PMS5003;69156;55.932;-3.238;2023-07-13T07:36:49;1;1;
79689;PMS5003;69156;55.932;-3.238;2023-07-13T07:39:15;2;2;
79689;PMS5003;69156;55.932;-3.238;2023-07-13T07:41:40;1;1;
79689;PMS5003;69156;55.932;-3.238;2023-07-13T07:44:06;2;2;
79689;PMS5003;69156;55.932;-3.238;2023-07-13T07:46:32;1;1;
79689;PMS5003;69156;55.932;-3.238;2023-07-13T07:48:57;2;2;
79689;PMS5003;69156;55.932;-3.238;2023-07-13T07:51:23;3;3;
79689;PMS5003;69156;55.932;-3.238;2023-07-13T07:53:48;1;1;
79689;PMS5003;69156;55.932;-3.238;2023-07-13T07:56:14;2;2;
79689;PMS5003;69156;55.932;-3.238;2023-07-13T07:58:39;3;3;
79689;PMS5003;69156;55.932;-3.238;2023-07-13T08:01:05;3;3;
79689;PMS5003;69156;55.932;-3.238;2023-07-13T08:03:30;2;2;
79689;PMS5003;69156;55.932;-3.238;2023-07-13T08:05:56;2;1;
79689;PMS5003;69156;55.932;-3.238;2023-07-13T08:08:21;2;2;
79689;PMS5003;69156;55.932;-3.238;2023-07-13T08:10:47;2;2;
79689;PMS5003;69156;55.932;-3.238;2023-07-13T08:13:13;2;2;
79689;PMS5003;69156;55.932;-3.238;2023-07-13T08:15:38;3;3;
79689;PMS5003;69156;55.932;-3.238;2023-07-13T08:18:04;3;3;
79689;PMS5003;69156;55.932;-3.238;2023-07-13T08:20:30;3;3;
79689;PMS5003;69156;55.932;-3.238;2023-07-13T08:22:55;2;2;
79689;PMS5003;69156;55.932;-3.238;2023-07-13T08:25:20;2;2;
79689;PMS5003;69156;55.932;-3.238;2023-07-13T08:27:47;3;3;
79689;PMS5003;69156;55.932;-3.238;2023-07-13T08:30:12;2;2;
79689;PMS5003;69156;55.932;-3.238;2023-07-13T08:32:37;2;2;
79689;PMS5003;69156;55.932;-3.238;2023-07-13T08:35:03;2;2;
79689;PMS5003;69156;55.932;-3.238;2023-07-13T08:37:28;5;4;
79689;PMS5003;69156;55.932;-3.238;2023-07-13T08:39:53;2;2;
79689;PMS5003;69156;55.932;-3.238;2023-07-13T08:42:22;3;3;
79689;PMS5003;69156;55.932;-3.238;2023-07-13T08:44:47;2;2;
79689;PMS5003;69156;55.932;-3.238;2023-07-13T08:47:10;2;1;
79689;PMS5003;69156;55.932;-3.238;2023-07-13T08:49:36;2;2;
79689;PMS5003;69156;55.932;-3.238;2023-07-13T08:52:02;3;3;
79689;PMS5003;69156;55.932;-3.238;2023-07-13T08:54:27;3;3;
79689;PMS5003;69156;55.932;-3.238;2023-07-13T08:56:52;3;3;
79689;PMS5003;69156;55.932;-3.238;2023-07-13T08:59:18;4;4;
79689;PMS5003;69156;55.932;-3.238;2023-07-13T09:01:47;4;4;
79689;PMS5003;69156;55.932;-3.238;2023-07-13T09:04:09;3;3;
79689;PMS5003;69156;55.932;-3.238;2023-07-13T09:06:46;2;2;
79689;PMS5003;69156;55.932;-3.238;2023-07-13T09:09:00;3;3;
79689;PMS5003;69156;55.932;-3.238;2023-07-13T09:11:30;2;2;
79689;PMS5003;69156;55.932;-3.238;2023-07-13T09:13:51;2;2;
79689;PMS5003;69156;55.932;-3.238;2023-07-13T09:16:16;1;1;
79689;PMS5003;69156;55.932;-3.238;2023-07-13T09:18:42;2;2;
79689;PMS5003;69156;55.932;-3.238;2023-07-13T09:21:08;2;1;
79689;PMS5003;69156;55.932;-3.238;2023-07-13T09:23:32;1;1;
79689;PMS5003;69156;55.932;-3.238;2023-07-13T09:26:00;2;2;
79689;PMS5003;69156;55.932;-3.238;2023-07-13T09:28:23;3;3;
79689;PMS5003;69156;55.932;-3.238;2023-07-13T09:30:50;2;2;
79689;PMS5003;69156;55.932;-3.238;2023-07-13T09:33:13;1;1;
79689;PMS5003;69156;55.932;-3.238;2023-07-13T09:35:38;2;2;
79689;PMS5003;69156;55.932;-3.238;2023-07-13T09:38:09;3;3;
79689;PMS5003;69156;55.932;-3.238;2023-07-13T09:40:36;2;2;
79689;PMS5003;69156;55.932;-3.238;2023-07-13T09:42:54;1;1;
79689;PMS5003;69156;55.932;-3.238;2023-07-13T09:45:26;1;1;
79689;PMS5003;69156;55.932;-3.238;2023-07-13T09:47:45;1;1;
79689;PMS5003;69156;55.932;-3.238;2023-07-13T09:50:15;3;2;
79689;PMS5003;69156;55.932;-3.238;2023-07-13T09:52:40;2;2;
79689;PMS5003;69156;55.932;-3.238;2023-07-13T09:55:01;2;2;
79689;PMS5003;69156;55.932;-3.238;2023-07-13T09:57:27;1;1;
79689;PMS5003;69156;55.932;-3.238;2023-07-13T09:59:53;2;2;
79689;PMS5003;69156;55.932;-3.238;2023-07-13T10:02:23;2;2;
79689;PMS5003;69156;55.932;-3.238;2023-07-13T10:04:44;3;3;
79689;PMS5003;69156;55.932;-3.238;2023-07-13T10:07:12;3;2;
79689;PMS5003;69156;55.932;-3.238;2023-07-13T10:09:35;2;2;
79689;PMS5003;69156;55.932;-3.238;2023-07-13T10:12:00;1;1;
79689;PMS5003;69156;55.932;-3.238;2023-07-13T10:14:26;2;2;
79689;PMS5003;69156;55.932;-3.238;2023-07-13T10:16:52;1;1;
79689;PMS5003;69156;55.932;-3.238;2023-07-13T10:19:18;1;1;
79689;PMS5003;69156;55.932;-3.238;2023-07-13T10:21:45;2;2;
79689;PMS5003;69156;55.932;-3.238;2023-07-13T10:24:10;2;2;
79689;PMS5003;69156;55.932;-3.238;2023-07-13T10:26:33;2;2;
79689;PMS5003;69156;55.932;-3.238;2023-07-13T10:29:00;2;2;
79689;PMS5003;69156;55.932;-3.238;2023-07-13T10:31:24;2;2;
79689;PMS5003;69156;55.932;-3.238;2023-07-13T10:33:50;1;1;
79689;PMS5003;69156;55.932;-3.238;2023-07-13T10:36:16;2;2;
79689;PMS5003;69156;55.932;-3.238;2023-07-13T10:38:40;1;1;
79689;PMS5003;69156;55.932;-3.238;2023-07-13T10:41:07;1;1;
79689;PMS5003;69156;55.932;-3.238;2023-07-13T10:43:32;1;1;
79689;PMS5003;69156;55.932;-3.238;2023-07-13T10:45:57;3;2;
79689;PMS5003;69156;55.932;-3.238;2023-07-13T10:48:22;2;2;
79689;PMS5003;69156;55.932;-3.238;2023-07-13T10:50:48;4;4;
79689;PMS5003;69156;55.932;-3.238;2023-07-13T10:53:18;2;2;
79689;PMS5003;69156;55.932;-3.238;2023-07-13T10:55:40;2;2;
79689;PMS5003;69156;55.932;-3.238;2023-07-13T10:58:11;2;2;
79689;PMS5003;69156;55.932;-3.238;2023-07-13T11:00:31;1;1;
79689;PMS5003;69156;55.932;-3.238;2023-07-13T11:02:56;3;3;
79689;PMS5003;69156;55.932;-3.238;2023-07-13T11:05:25;2;2;
79689;PMS5003;69156;55.932;-3.238;2023-07-13T11:07:52;1;1;
79689;PMS5003;69156;55.932;-3.238;2023-07-13T11:10:45;3;3;
79689;PMS5003;69156;55.932;-3.238;2023-07-13T11:12:54;3;3;
79689;PMS5003;69156;55.932;-3.238;2023-07-13T11:15:05;1;1;
79689;PMS5003;69156;55.932;-3.238;2023-07-13T11:17:33;3;3;
79689;PMS5003;69156;55.932;-3.238;2023-07-13T11:19:54;2;2;
79689;PMS5003;69156;55.932;-3.238;2023-07-13T11:22:24;2;2;
79689;PMS5003;69156;55.932;-3.238;2023-07-13T11:24:48;1;1;
79689;PMS5003;69156;55.932;-3.238;2023-07-13T11:27:18;2;2;
79689;PMS5003;69156;55.932;-3.238;2023-07-13T11:29:37;1;1;
79689;PMS5003;69156;55.932;-3.238;2023-07-13T11:34:27;1;1;
79689;PMS5003;69156;55.932;-3.238;2023-07-13T11:36:52;3;3;
79689;PMS5003;69156;55.932;-3.238;2023-07-13T11:39:18;3;3;
79689;PMS5003;69156;55.932;-3.238;2023-07-13T11:41:43;2;2;
79689;PMS5003;69156;55.932;-3.238;2023-07-13T11:44:12;2;2;
79689;PMS5003;69156;55.932;-3.238;2023-07-13T11:46:33;2;2;
79689;PMS5003;69156;55.932;-3.238;2023-07-13T11:48:58;2;2;
79689;PMS5003;69156;55.932;-3.238;2023-07-13T11:51:25;2;2;
79689;PMS5003;69156;55.932;-3.238;2023-07-13T11:53:50;1;1;
79689;PMS5003;69156;55.932;-3.238;2023-07-13T11:56:15;2;2;
79689;PMS5003;69156;55.932;-3.238;2023-07-13T11:58:40;2;2;
79689;PMS5003;69156;55.932;-3.238;2023-07-13T12:01:11;3;3;
79689;PMS5003;69156;55.932;-3.238;2023-07-13T12:03:32;1;1;
79689;PMS5003;69156;55.932;-3.238;2023-07-13T12:05:58;1;1;
79689;PMS5003;69156;55.932;-3.238;2023-07-13T12:08:23;1;1;
79689;PMS5003;69156;55.932;-3.238;2023-07-13T12:10:48;3;3;
79689;PMS5003;69156;55.932;-3.238;2023-07-13T12:13:14;3;3;
79689;PMS5003;69156;55.932;-3.238;2023-07-13T12:15:40;3;2;
79689;PMS5003;69156;55.932;-3.238;2023-07-13T12:18:10;2;2;
79689;PMS5003;69156;55.932;-3.238;2023-07-13T12:20:33;3;3;
79689;PMS5003;69156;55.932;-3.238;2023-07-13T12:22:57;3;3;
79689;PMS5003;69156;55.932;-3.238;2023-07-13T12:25:23;2;2;
79689;PMS5003;69156;55.932;-3.238;2023-07-13T12:27:49;1;1;
79689;PMS5003;69156;55.932;-3.238;2023-07-13T12:30:23;3;2;
79689;PMS5003;69156;55.932;-3.238;2023-07-13T12:32:38;3;2;
79689;PMS5003;69156;55.932;-3.238;2023-07-13T12:35:12;2;2;
79689;PMS5003;69156;55.932;-3.238;2023-07-13T12:37:33;2;2;
79689;PMS5003;69156;55.932;-3.238;2023-07-13T12:39:56;2;2;
79689;PMS5003;69156;55.932;-3.238;2023-07-13T12:42:22;0;0;
79689;PMS5003;69156;55.932;-3.238;2023-07-13T12:44:47;1;1;
79689;PMS5003;69156;55.932;-3.238;2023-07-13T12:47:13;1;1;
79689;PMS5003;69156;55.932;-3.238;2023-07-13T12:49:40;1;1;
79689;PMS5003;69156;55.932;-3.238;2023-07-13T12:52:03;2;2;
79689;PMS5003;69156;55.932;-3.238;2023-07-13T12:54:29;2;2;
79689;PMS5003;69156;55.932;-3.238;2023-07-13T12:56:53;1;1;
79689;PMS5003;69156;55.932;-3.238;2023-07-13T12:59:19;1;1;
79689;PMS5003;69156;55.932;-3.238;2023-07-13T13:01:45;2;2;
79689;PMS5003;69156;55.932;-3.238;2023-07-13T13:04:09;2;2;
79689;PMS5003;69156;55.932;-3.238;2023-07-13T13:06:34;2;2;
79689;PMS5003;69156;55.932;-3.238;2023-07-13T13:09:00;3;2;
79689;PMS5003;69156;55.932;-3.238;2023-07-13T13:11:26;2;2;
79689;PMS5003;69156;55.932;-3.238;2023-07-13T13:13:51;1;1;
79689;PMS5003;69156;55.932;-3.238;2023-07-13T13:16:18;3;3;
79689;PMS5003;69156;55.932;-3.238;2023-07-13T13:18:42;2;2;
79689;PMS5003;69156;55.932;-3.238;2023-07-13T13:21:08;2;2;
79689;PMS5003;69156;55.932;-3.238;2023-07-13T13:23:32;2;1;
79689;PMS5003;69156;55.932;-3.238;2023-07-13T13:25:58;2;1;
79689;PMS5003;69156;55.932;-3.238;2023-07-13T13:28:23;2;2;
79689;PMS5003;69156;55.932;-3.238;2023-07-13T13:30:49;1;1;
79689;PMS5003;69156;55.932;-3.238;2023-07-13T13:33:14;1;1;
79689;PMS5003;69156;55.932;-3.238;2023-07-13T13:35:39;2;2;
79689;PMS5003;69156;55.932;-3.238;2023-07-13T13:38:04;0;0;
79689;PMS5003;69156;55.932;-3.238;2023-07-13T13:40:29;3;2;
79689;PMS5003;69156;55.932;-3.238;2023-07-13T13:42:54;2;2;
79689;PMS5003;69156;55.932;-3.238;2023-07-13T13:45:21;1;1;
79689;PMS5003;69156;55.932;-3.238;2023-07-13T13:47:46;2;2;
79689;PMS5003;69156;55.932;-3.238;2023-07-13T13:50:12;2;2;
79689;PMS5003;69156;55.932;-3.238;2023-07-13T13:52:37;1;1;
79689;PMS5003;69156;55.932;-3.238;2023-07-13T13:55:05;4;3;
79689;PMS5003;69156;55.932;-3.238;2023-07-13T13:57:27;3;3;
79689;PMS5003;69156;55.932;-3.238;2023-07-13T13:59:53;3;2;
79689;PMS5003;69156;55.932;-3.238;2023-07-13T14:02:21;1;1;
79689;PMS5003;69156;55.932;-3.238;2023-07-13T14:04:44;2;2;
79689;PMS5003;69156;55.932;-3.238;2023-07-13T14:07:09;1;1;
79689;PMS5003;69156;55.932;-3.238;2023-07-13T14:09:35;1;1;
79689;PMS5003;69156;55.932;-3.238;2023-07-13T14:12:00;1;1;
79689;PMS5003;69156;55.932;-3.238;2023-07-13T14:14:27;2;2;
79689;PMS5003;69156;55.932;-3.238;2023-07-13T14:16:52;1;1;
79689;PMS5003;69156;55.932;-3.238;2023-07-13T14:19:17;2;2;
79689;PMS5003;69156;55.932;-3.238;2023-07-13T14:21:43;1;1;
79689;PMS5003;69156;55.932;-3.238;2023-07-13T14:24:08;2;2;
79689;PMS5003;69156;55.932;-3.238;2023-07-13T14:26:36;1;1;
79689;PMS5003;69156;55.932;-3.238;2023-07-13T14:28:59;3;3;
79689;PMS5003;69156;55.932;-3.238;2023-07-13T14:31:25;2;2;
79689;PMS5003;69156;55.932;-3.238;2023-07-13T14:33:50;2;2;
79689;PMS5003;69156;55.932;-3.238;2023-07-13T14:36:21;1;1;
79689;PMS5003;69156;55.932;-3.238;2023-07-13T14:38:41;2;2;
79689;PMS5003;69156;55.932;-3.238;2023-07-13T14:41:07;3;3;
79689;PMS5003;69156;55.932;-3.238;2023-07-13T14:43:32;1;1;
79689;PMS5003;69156;55.932;-3.238;2023-07-13T14:45:58;0;0;
79689;PMS5003;69156;55.932;-3.238;2023-07-13T14:48:23;2;2;
79689;PMS5003;69156;55.932;-3.238;2023-07-13T14:50:50;2;2;
79689;PMS5003;69156;55.932;-3.238;2023-07-13T14:53:15;1;1;
79689;PMS5003;69156;55.932;-3.238;2023-07-13T14:55:40;3;3;
79689;PMS5003;69156;55.932;-3.238;2023-07-13T14:58:05;1;1;
79689;PMS5003;69156;55.932;-3.238;2023-07-13T15:00:30;2;2;
79689;PMS5003;69156;55.932;-3.238;2023-07-13T15:02:57;2;2;
79689;PMS5003;69156;55.932;-3.238;2023-07-13T15:05:22;2;2;
79689;PMS5003;69156;55.932;-3.238;2023-07-13T15:07:48;2;2;
79689;PMS5003;69156;55.932;-3.238;2023-07-13T15:10:15;0;0;
79689;PMS5003;69156;55.932;-3.238;2023-07-13T15:12:38;2;2;
79689;PMS5003;69156;55.932;-3.238;2023-07-13T15:15:03;1;1;
79689;PMS5003;69156;55.932;-3.238;2023-07-13T15:17:32;1;1;
79689;PMS5003;69156;55.932;-3.238;2023-07-13T15:19:53;1;1;
79689;PMS5003;69156;55.932;-3.238;2023-07-13T15:22:19;1;1;
79689;PMS5003;69156;55.932;-3.238;2023-07-13T15:24:45;0;0;
79689;PMS5003;69156;55.932;-3.238;2023-07-13T15:27:11;2;2;
79689;PMS5003;69156;55.932;-3.238;2023-07-13T15:29:36;0;0;
79689;PMS5003;69156;55.932;-3.238;2023-07-13T15:32:02;2;2;
79689;PMS5003;69156;55.932;-3.238;2023-07-13T15:34:27;1;1;
79689;PMS5003;69156;55.932;-3.238;2023-07-13T15:36:52;1;1;
79689;PMS5003;69156;55.932;-3.238;2023-07-13T15:39:18;2;2;
79689;PMS5003;69156;55.932;-3.238;2023-07-13T15:41:43;2;2;
79689;PMS5003;69156;55.932;-3.238;2023-07-13T15:44:18;2;2;
79689;PMS5003;69156;55.932;-3.238;2023-07-13T15:46:34;3;3;
79689;PMS5003;69156;55.932;-3.238;2023-07-13T15:49:00;2;2;
79689;PMS5003;69156;55.932;-3.238;2023-07-13T15:51:27;2;2;
79689;PMS5003;69156;55.932;-3.238;2023-07-13T15:53:52;2;2;
79689;PMS5003;69156;55.932;-3.238;2023-07-13T15:56:19;3;2;
79689;PMS5003;69156;55.932;-3.238;2023-07-13T15:58:43;2;2;
79689;PMS5003;69156;55.932;-3.238;2023-07-13T16:01:09;0;0;
79689;PMS5003;69156;55.932;-3.238;2023-07-13T16:03:34;2;2;
79689;PMS5003;69156;55.932;-3.238;2023-07-13T16:06:00;1;1;
79689;PMS5003;69156;55.932;-3.238;2023-07-13T16:08:27;1;1;
79689;PMS5003;69156;55.932;-3.238;2023-07-13T16:10:51;0;0;
79689;PMS5003;69156;55.932;-3.238;2023-07-13T16:13:20;2;1;
79689;PMS5003;69156;55.932;-3.238;2023-07-13T16:15:42;1;1;
79689;PMS5003;69156;55.932;-3.238;2023-07-13T16:18:07;1;1;
79689;PMS5003;69156;55.932;-3.238;2023-07-13T16:20:33;1;1;
79689;PMS5003;69156;55.932;-3.238;2023-07-13T16:22:58;1;1;